»·PEaware :: ASA175 KSJC-KEUG

ASA175 :: KSJC-KEUG

FLIGHT INFORMATION

Flight Status: Arrived
Operator:
Alaska Airlines
More flights by this operator :: More flights under this callsign
Pilot: Alex M. (18860)
Aircraft: BOEING 737-800
(B738)
More flights by this aircraft type
Origin: KSJC Mineta San Jose Intl
United States
Destination: KEUG Mahlon Sweet
United States
More flights between these airports :: More routes between these airports
Route: +LOUPE4 BMRNG HRNER EUG
File this flight plan on PilotEdge
Remarks: / L
Altitude:
(Current/Filed)
34,000ft
Speed:
(Current/Filed)
442kts
Departed: 12-Jun-18 11:57 AM
Arrived: 12-Jun-18 01:22 PM
Distance/Time
Traveled:
410nm/1:25
Distance/Time
To Go:
Arrived

Flight Plot

Page will automatically refresh every two minutes.

Flight plan parsing failed; only flown route is shown


Map Options




Map Legend


Flown Route
Filed Route
Departure Airport
Arrival Airport
Navaid (VOR, NDB)
Fix

Horizontal Profiles

Position Reports

Time Latitude Longitude Heading Altitude Ground
Speed
12-Jun-18 11:05 37.368822 -121.929820 47 43ft 0kts
12-Jun-18 11:06 37.368822 -121.929820 47 43ft 0kts
12-Jun-18 11:07 37.368822 -121.929820 47 43ft 0kts
12-Jun-18 11:08 37.368822 -121.929820 47 43ft 0kts
12-Jun-18 11:09 37.368822 -121.929820 47 43ft 0kts
12-Jun-18 11:10 37.368822 -121.929820 47 43ft 0kts
12-Jun-18 11:11 37.368822 -121.929820 47 43ft 0kts
12-Jun-18 11:12 37.368822 -121.929820 47 43ft 0kts
12-Jun-18 11:13 37.368822 -121.929820 47 43ft 0kts
12-Jun-18 11:14 37.368822 -121.929820 47 43ft 0kts
12-Jun-18 11:15 37.368822 -121.929820 47 43ft 0kts
12-Jun-18 11:16 37.368822 -121.929820 47 43ft 0kts
12-Jun-18 11:17 37.368822 -121.929820 47 43ft 0kts
12-Jun-18 11:18 37.368822 -121.929820 47 43ft 0kts
12-Jun-18 11:19 37.368822 -121.929820 47 43ft 0kts
12-Jun-18 11:20 37.368822 -121.929820 47 43ft 0kts
12-Jun-18 11:21 37.368822 -121.929820 47 43ft 0kts
12-Jun-18 11:22 37.368822 -121.929820 47 43ft 0kts
12-Jun-18 11:23 37.368822 -121.929820 47 43ft 0kts
12-Jun-18 11:24 37.368822 -121.929820 47 43ft 0kts
12-Jun-18 11:25 37.368822 -121.929820 47 43ft 0kts
12-Jun-18 11:26 37.368822 -121.929820 47 43ft 0kts
12-Jun-18 11:27 37.368822 -121.929820 47 43ft 0kts
12-Jun-18 11:28 37.368822 -121.929820 47 43ft 0kts
12-Jun-18 11:29 37.368822 -121.929820 47 43ft 0kts
12-Jun-18 11:30 37.368822 -121.929820 47 43ft 0kts
12-Jun-18 11:31 37.368822 -121.929820 47 43ft 0kts
12-Jun-18 11:32 37.368822 -121.929820 47 43ft 0kts
12-Jun-18 11:33 37.368822 -121.929820 47 43ft 0kts
12-Jun-18 11:34 37.368822 -121.929820 47 43ft 0kts
12-Jun-18 11:35 37.368822 -121.929820 47 43ft 0kts
12-Jun-18 11:36 37.368822 -121.929820 47 43ft 0kts
12-Jun-18 11:37 37.368822 -121.929820 47 43ft 0kts
12-Jun-18 11:38 37.368822 -121.929820 47 43ft 0kts
12-Jun-18 11:39 37.368817 -121.929826 47 43ft 1kts
12-Jun-18 11:40 37.368647 -121.930469 107 43ft 2kts
12-Jun-18 11:41 37.368822 -121.930782 139 43ft 0kts
12-Jun-18 11:42 37.368822 -121.930782 138 43ft 0kts
12-Jun-18 11:43 37.368821 -121.930782 138 43ft 0kts
12-Jun-18 11:44 37.368821 -121.930782 138 43ft 0kts
12-Jun-18 11:45 37.368675 -121.930622 139 43ft 2kts
12-Jun-18 11:46 37.367944 -121.929818 138 44ft 7kts
12-Jun-18 11:47 37.366381 -121.928082 139 47ft 13kts
12-Jun-18 11:48 37.363517 -121.924943 139 50ft 18kts
12-Jun-18 11:49 37.360737 -121.921898 138 53ft 14kts
12-Jun-18 11:50 37.358558 -121.919509 138 56ft 11kts
12-Jun-18 11:51 37.356879 -121.917671 139 60ft 8kts
12-Jun-18 11:52 37.355340 -121.915954 138 61ft 8kts
12-Jun-18 11:53 37.353570 -121.914208 170 63ft 8kts
12-Jun-18 11:54 37.353135 -121.914421 226 64ft 0kts
12-Jun-18 11:55 37.353135 -121.914421 226 64ft 0kts
12-Jun-18 11:56 37.352722 -121.915722 309 64ft 11kts
12-Jun-18 11:57 37.366177 -121.930541 319 103ft 164kts
12-Jun-18 11:58 37.394322 -121.961380 318 2174ft 173kts
12-Jun-18 11:59 37.426337 -121.970916 38 3370ft 229kts
12-Jun-18 12:00 37.416400 -121.906374 135 5056ft 282kts
12-Jun-18 12:01 37.371365 -121.851500 136 7783ft 290kts
12-Jun-18 12:02 37.322948 -121.792995 136 10312ft 303kts
12-Jun-18 12:03 37.257799 -121.795664 233 12179ft 325kts
12-Jun-18 12:04 37.267756 -121.888722 302 14607ft 332kts
12-Jun-18 12:05 37.337547 -121.934508 346 16677ft 350kts
12-Jun-18 12:06 37.418575 -121.950205 354 18556ft 362kts
12-Jun-18 12:07 37.492731 -121.956367 354 20188ft 370kts
12-Jun-18 12:08 37.575988 -121.963386 354 21771ft 380kts
12-Jun-18 12:09 37.666523 -121.971059 353 23179ft 392kts
12-Jun-18 12:10 37.758982 -121.978834 353 24569ft 401kts
12-Jun-18 12:11 37.843860 -121.986051 353 25738ft 409kts
12-Jun-18 12:12 37.931702 -121.993591 353 26842ft 416kts
12-Jun-18 12:13 38.031645 -122.002153 353 28005ft 424kts
12-Jun-18 12:14 38.112349 -122.009091 353 28865ft 429kts
12-Jun-18 12:15 38.180969 -122.014937 352 29700ft 430kts
12-Jun-18 12:16 38.265573 -122.022231 352 30765ft 427kts
12-Jun-18 12:17 38.362546 -122.034163 348 31936ft 422kts
12-Jun-18 12:18 38.467801 -122.054627 347 33101ft 418kts
12-Jun-18 12:19 38.572311 -122.075695 347 33877ft 422kts
12-Jun-18 12:20 38.669555 -122.095589 347 33895ft 444kts
12-Jun-18 12:21 38.784241 -122.119096 347 33887ft 459kts
12-Jun-18 12:22 38.893032 -122.141459 347 33886ft 458kts
12-Jun-18 12:23 39.009796 -122.165513 347 33886ft 458kts
12-Jun-18 12:24 39.116939 -122.187587 347 33884ft 457kts
12-Jun-18 12:25 39.191802 -122.203016 347 33884ft 458kts
12-Jun-18 12:26 39.294721 -122.224247 347 33884ft 458kts
12-Jun-18 12:27 39.391204 -122.244152 347 33884ft 458kts
12-Jun-18 12:28 39.491897 -122.264927 347 33886ft 458kts
12-Jun-18 12:29 39.597424 -122.286698 347 33885ft 458kts
12-Jun-18 12:30 39.685102 -122.304780 347 33885ft 458kts
12-Jun-18 12:31 39.777679 -122.323880 347 33885ft 458kts
12-Jun-18 12:32 39.865146 -122.341927 347 33859ft 457kts
12-Jun-18 12:33 39.961347 -122.361785 347 33858ft 458kts
12-Jun-18 12:34 40.067972 -122.383779 348 33861ft 458kts
12-Jun-18 12:35 40.144610 -122.399606 348 33856ft 458kts
12-Jun-18 12:36 40.240704 -122.419445 348 33856ft 458kts
12-Jun-18 12:37 40.348823 -122.441772 348 33856ft 458kts
12-Jun-18 12:38 40.435947 -122.459756 348 33856ft 458kts
12-Jun-18 12:39 40.535901 -122.480392 348 33857ft 458kts
12-Jun-18 12:40 40.619026 -122.497565 347 33857ft 458kts
12-Jun-18 12:41 40.723629 -122.519143 347 33857ft 456kts
12-Jun-18 12:42 40.843454 -122.543902 347 33867ft 455kts
12-Jun-18 12:43 40.952493 -122.566442 347 34066ft 455kts
12-Jun-18 12:44 41.063727 -122.589422 347 34047ft 454kts
12-Jun-18 12:45 41.154501 -122.608184 347 34063ft 454kts
12-Jun-18 12:46 41.266686 -122.631365 347 34044ft 454kts
12-Jun-18 12:47 41.370819 -122.652878 346 34021ft 453kts
12-Jun-18 12:48 41.486968 -122.676860 346 34051ft 452kts
12-Jun-18 12:49 41.604239 -122.701125 346 34050ft 451kts
12-Jun-18 12:50 41.711645 -122.723319 346 32912ft 447kts
12-Jun-18 12:51 41.825989 -122.746972 346 30696ft 444kts
12-Jun-18 12:52 41.938533 -122.770231 347 28438ft 430kts
12-Jun-18 12:53 42.045695 -122.792401 347 26248ft 420kts
12-Jun-18 12:54 42.145353 -122.812984 347 24158ft 410kts
12-Jun-18 12:55 42.246523 -122.833956 347 23994ft 403kts
12-Jun-18 12:56 42.347061 -122.854789 347 23994ft 403kts
12-Jun-18 12:57 42.449646 -122.876023 347 23995ft 403kts
12-Jun-18 12:58 42.556734 -122.898161 346 23993ft 401kts
12-Jun-18 12:59 42.659730 -122.919498 346 23997ft 402kts
12-Jun-18 13:00 42.760156 -122.940271 346 22749ft 398kts
12-Jun-18 13:01 42.855708 -122.960009 347 20799ft 387kts
12-Jun-18 13:02 42.947908 -122.979089 347 18862ft 378kts
12-Jun-18 13:03 43.040849 -122.998347 347 16858ft 367kts
12-Jun-18 13:04 43.125379 -123.015853 348 15120ft 356kts
12-Jun-18 13:05 43.214018 -123.034201 348 13275ft 346kts
12-Jun-18 13:06 43.295894 -123.051180 349 11529ft 338kts
12-Jun-18 13:07 43.373357 -123.067256 350 10283ft 298kts
12-Jun-18 13:08 43.443876 -123.081877 349 9943ft 294kts
12-Jun-18 13:09 43.512851 -123.096174 350 9948ft 295kts
12-Jun-18 13:10 43.587256 -123.111597 349 9945ft 294kts
12-Jun-18 13:11 43.654036 -123.124966 351 9789ft 298kts
12-Jun-18 13:12 43.722336 -123.136422 352 8348ft 267kts
12-Jun-18 13:13 43.779425 -123.146247 352 7423ft 227kts
12-Jun-18 13:14 43.833983 -123.155988 352 6070ft 215kts
12-Jun-18 13:15 43.886323 -123.165813 352 4716ft 209kts
12-Jun-18 13:16 43.930045 -123.192785 323 3950ft 185kts
12-Jun-18 13:17 43.969825 -123.212327 356 3433ft 197kts
12-Jun-18 13:18 44.016174 -123.214723 358 2226ft 192kts
12-Jun-18 13:19 44.059472 -123.216065 358 1455ft 155kts
12-Jun-18 13:20 44.095376 -123.218512 359 793ft 155kts
12-Jun-18 13:21 44.125234 -123.218986 359 365ft 84kts
12-Jun-18 13:22 44.129895 -123.217845 130 362ft 2kts
12-Jun-18 13:23 44.129892 -123.217841 130 362ft 0kts
12-Jun-18 13:24 44.129892 -123.217841 130 362ft 0kts
12-Jun-18 13:25 44.129745 -123.217602 131 362ft 3kts
12-Jun-18 13:26 44.128359 -123.217134 179 362ft 6kts
12-Jun-18 13:27 44.126865 -123.217105 179 365ft 6kts
12-Jun-18 13:28 44.124132 -123.216775 149 367ft 14kts
12-Jun-18 13:29 44.121200 -123.214641 175 369ft 6kts
12-Jun-18 13:30 44.120250 -123.214325 162 370ft 0kts

Navigation Log

Ident Type
Flight plan parsing failed, navigation log unavailable